createdAt,value
2022-08-22T00:00:13.598Z,100.00
2022-08-22T00:02:44.407Z,100.00
2022-08-22T00:02:55.614Z,100.00
2022-08-22T00:02:57.678Z,100.00
2022-08-22T00:02:58.381Z,100.00
2022-08-22T00:03:00.668Z,100.00
2022-08-22T00:03:04.186Z,100.00
2022-08-22T00:03:10.387Z,100.00
2022-08-22T00:03:17.423Z,100.00
2022-08-22T00:05:59.931Z,100.00
2022-08-22T00:08:37.524Z,100.00
2022-08-22T00:11:14.154Z,100.00
2022-08-22T00:13:47.827Z,100.00
2022-08-22T00:16:29.202Z,100.00
2022-08-22T00:19:09.945Z,100.00
2022-08-22T00:21:48.878Z,100.00
2022-08-22T00:24:26.535Z,100.00
2022-08-22T00:27:00.613Z,100.00
2022-08-22T00:29:39.899Z,100.00
2022-08-22T00:32:17.161Z,100.00
2022-08-22T00:34:58.453Z,100.00
2022-08-22T00:37:38.223Z,100.00
2022-08-22T00:40:29.417Z,100.00
2022-08-22T00:43:32.721Z,100.00
2022-08-22T00:46:15.490Z,100.00
2022-08-22T00:49:25.427Z,100.00
2022-08-22T00:52:29.140Z,100.00
2022-08-22T00:55:33.898Z,100.00
2022-08-22T00:58:46.627Z,100.00
2022-08-22T01:01:21.098Z,100.00
2022-08-22T01:04:07.567Z,100.00
2022-08-22T01:06:46.890Z,100.00
2022-08-22T01:09:41.406Z,100.00
2022-08-22T01:12:40.197Z,100.00
2022-08-22T01:15:14.541Z,100.00
2022-08-22T01:18:08.293Z,100.00
2022-08-22T01:21:20.683Z,100.00
2022-08-22T01:25:00.239Z,100.00
2022-08-22T01:27:58.980Z,100.00
2022-08-22T01:31:00.977Z,100.00
2022-08-22T01:34:14.161Z,100.00
2022-08-22T01:37:19.043Z,100.00
2022-08-22T01:40:25.313Z,100.00
2022-08-22T01:43:07.438Z,100.00
2022-08-22T01:46:11.041Z,100.00
2022-08-22T01:48:47.750Z,100.00
2022-08-22T01:51:24.762Z,100.00
2022-08-22T01:54:02.406Z,100.00
2022-08-22T01:56:37.313Z,100.00
2022-08-22T01:59:10.905Z,100.00
2022-08-22T02:01:59.450Z,100.00
2022-08-22T02:04:43.711Z,100.00
2022-08-22T02:07:31.660Z,100.00
2022-08-22T02:10:09.285Z,100.00
2022-08-22T02:12:47.417Z,100.00
2022-08-22T02:15:24.185Z,100.00
2022-08-22T02:18:03.755Z,100.00
2022-08-22T02:20:40.717Z,100.00
2022-08-22T02:23:20.932Z,100.00
2022-08-22T02:25:56.251Z,100.00
2022-08-22T02:28:38.485Z,100.00
2022-08-22T02:31:19.891Z,100.00
2022-08-22T02:33:54.961Z,100.00
2022-08-22T02:36:30.006Z,100.00
2022-08-22T02:39:09.747Z,100.00
2022-08-22T02:41:49.486Z,100.00
2022-08-22T02:44:28.291Z,100.00
2022-08-22T02:47:08.403Z,100.00
2022-08-22T02:49:48.546Z,100.00
2022-08-22T02:52:26.668Z,100.00
2022-08-22T02:55:03.823Z,100.00
2022-08-22T02:57:39.339Z,100.00
2022-08-22T03:00:32.025Z,100.00
2022-08-22T03:03:05.940Z,100.00
2022-08-22T03:05:48.369Z,100.00
2022-08-22T03:08:23.923Z,100.00
2022-08-22T03:11:07.895Z,100.00
2022-08-22T03:13:48.275Z,100.00
2022-08-22T03:16:27.227Z,100.00
2022-08-22T03:19:03.101Z,100.00
2022-08-22T03:21:36.576Z,100.00
2022-08-22T03:24:12.422Z,100.00
2022-08-22T03:26:47.626Z,100.00
2022-08-22T03:29:21.794Z,100.00
2022-08-22T03:32:12.801Z,100.00
2022-08-22T03:34:57.109Z,100.00
2022-08-22T03:37:34.893Z,100.00
2022-08-22T03:40:07.839Z,100.00
2022-08-22T03:43:09.081Z,100.00
2022-08-22T03:46:04.476Z,100.00
2022-08-22T03:49:17.773Z,100.00
2022-08-22T03:52:02.709Z,100.00
2022-08-22T03:55:00.965Z,100.00
2022-08-22T03:58:13.633Z,100.00
2022-08-22T04:01:22.045Z,100.00
2022-08-22T04:04:28.754Z,100.00
2022-08-22T04:07:31.746Z,100.00
2022-08-22T04:10:32.584Z,100.00
2022-08-22T04:13:33.237Z,100.00
2022-08-22T04:16:31.096Z,100.00
2022-08-22T04:19:33.718Z,100.00
2022-08-22T04:22:38.417Z,100.00
2022-08-22T04:25:11.336Z,100.00
2022-08-22T04:27:45.353Z,100.00
2022-08-22T04:30:26.121Z,100.00
2022-08-22T04:33:03.163Z,100.00
2022-08-22T04:35:35.488Z,100.00
2022-08-22T04:38:14.653Z,100.00
2022-08-22T04:41:04.544Z,100.00
2022-08-22T04:43:39.070Z,100.00
2022-08-22T04:46:16.974Z,100.00
2022-08-22T04:48:52.778Z,100.00
2022-08-22T04:51:32.338Z,100.00
2022-08-22T04:54:43.606Z,100.00
2022-08-22T04:57:35.423Z,100.00
2022-08-22T05:00:06.982Z,100.00
2022-08-22T05:02:39.733Z,100.00
2022-08-22T05:05:14.734Z,100.00
2022-08-22T05:07:48.405Z,100.00
2022-08-22T05:10:20.849Z,100.00
2022-08-22T05:12:55.435Z,100.00
2022-08-22T05:15:31.865Z,100.00
2022-08-22T05:18:07.499Z,100.00
2022-08-22T05:20:37.952Z,100.00
2022-08-22T05:23:17.570Z,100.00
2022-08-22T05:25:50.114Z,100.00
2022-08-22T05:28:24.117Z,100.00
2022-08-22T05:31:00.096Z,100.00
2022-08-22T05:33:40.859Z,100.00
2022-08-22T05:36:11.824Z,100.00
2022-08-22T05:38:49.135Z,100.00
2022-08-22T05:41:26.627Z,100.00
2022-08-22T05:43:56.243Z,100.00
2022-08-22T05:46:26.993Z,100.00
2022-08-22T05:49:00.312Z,100.00
2022-08-22T05:51:33.195Z,100.00
2022-08-22T05:54:15.315Z,100.00
2022-08-22T05:56:48.445Z,100.00
2022-08-22T05:59:25.738Z,100.00
2022-08-22T06:02:03.494Z,100.00
2022-08-22T06:04:38.840Z,100.00
2022-08-22T06:07:13.178Z,100.00
2022-08-22T06:10:06.971Z,100.00
2022-08-22T06:12:43.434Z,100.00
2022-08-22T06:15:20.928Z,100.00
2022-08-22T06:17:52.344Z,100.00
2022-08-22T06:20:28.679Z,100.00
2022-08-22T06:23:00.835Z,100.00
2022-08-22T06:25:34.287Z,100.00
2022-08-22T06:28:07.290Z,100.00
2022-08-22T06:30:38.124Z,100.00
2022-08-22T06:33:12.584Z,100.00
2022-08-22T06:36:03.051Z,100.00
2022-08-22T06:38:34.033Z,100.00
2022-08-22T06:41:07.283Z,100.00
2022-08-22T06:43:41.278Z,100.00
2022-08-22T06:46:11.448Z,100.00
2022-08-22T06:48:42.614Z,100.00
2022-08-22T06:51:14.246Z,100.00
2022-08-22T06:53:48.473Z,100.00
2022-08-22T06:56:23.077Z,100.00
2022-08-22T06:58:53.963Z,100.00
2022-08-22T07:01:25.065Z,100.00
2022-08-22T07:04:00.441Z,100.00
2022-08-22T07:06:35.466Z,100.00
2022-08-22T07:09:06.188Z,100.00
2022-08-22T07:11:40.763Z,100.00
2022-08-22T07:14:12.451Z,100.00
2022-08-22T07:16:44.744Z,100.00
2022-08-22T07:19:28.881Z,100.00
2022-08-22T07:21:59.939Z,100.00
2022-08-22T07:24:33.023Z,100.00
2022-08-22T07:27:20.954Z,100.00
2022-08-22T07:29:58.069Z,100.00
2022-08-22T07:32:33.337Z,100.00
2022-08-22T07:35:11.181Z,100.00
2022-08-22T07:37:55.148Z,100.00
2022-08-22T07:40:33.972Z,100.00
2022-08-22T07:43:09.536Z,100.00
2022-08-22T07:45:41.978Z,100.00
2022-08-22T07:48:25.570Z,100.00
2022-08-22T07:51:05.861Z,100.00
2022-08-22T07:53:43.484Z,100.00
2022-08-22T07:56:17.127Z,100.00
2022-08-22T07:58:49.102Z,100.00
2022-08-22T08:01:21.276Z,100.00
2022-08-22T08:03:55.799Z,100.00
2022-08-22T08:06:26.493Z,100.00
2022-08-22T08:08:58.352Z,100.00
2022-08-22T08:11:31.832Z,100.00
2022-08-22T08:14:04.389Z,100.00
2022-08-22T08:16:43.076Z,100.00
2022-08-22T08:19:13.936Z,100.00
2022-08-22T08:21:49.575Z,100.00
2022-08-22T08:24:26.195Z,100.00
2022-08-22T08:27:17.208Z,100.00
2022-08-22T08:29:55.599Z,100.00
2022-08-22T08:32:29.030Z,100.00
2022-08-22T08:35:09.262Z,99.32
2022-08-22T08:37:50.003Z,100.00
2022-08-22T08:40:37.326Z,93.59
2022-08-22T08:43:30.068Z,94.86
2022-08-22T08:46:55.290Z,92.87
2022-08-22T08:50:01.189Z,86.21
2022-08-22T08:52:42.808Z,87.23
2022-08-22T08:55:30.639Z,82.44
2022-08-22T08:58:13.486Z,81.67
2022-08-22T09:01:07.295Z,84.87
2022-08-22T09:04:15.151Z,79.30
2022-08-22T09:07:15.879Z,78.90
2022-08-22T09:10:04.662Z,77.27
2022-08-22T09:13:00.633Z,76.94
2022-08-22T09:16:02.253Z,75.49
2022-08-22T09:18:49.882Z,76.21
2022-08-22T09:21:43.215Z,68.56
2022-08-22T09:24:54.416Z,64.07
2022-08-22T09:27:33.903Z,58.29
2022-08-22T09:30:11.921Z,64.42
2022-08-22T09:32:48.850Z,59.61
2022-08-22T09:35:27.189Z,58.78
2022-08-22T09:38:29.430Z,59.03
2022-08-22T09:41:11.677Z,61.92
2022-08-22T09:43:50.162Z,59.17
2022-08-22T09:46:32.067Z,63.36
2022-08-22T09:49:10.882Z,65.11
2022-08-22T09:51:52.789Z,63.96
2022-08-22T09:54:31.154Z,63.59
2022-08-22T09:57:09.246Z,61.96
2022-08-22T09:59:57.977Z,63.18
2022-08-22T10:02:43.279Z,69.47
2022-08-22T10:05:40.658Z,67.88
2022-08-22T10:08:20.121Z,68.70
2022-08-22T10:11:12.939Z,61.61
2022-08-22T10:13:52.890Z,65.75
2022-08-22T10:16:49.588Z,63.97
2022-08-22T10:19:29.921Z,59.85
2022-08-22T10:22:30.359Z,66.54
2022-08-22T10:25:19.041Z,67.94
2022-08-22T10:28:02.172Z,63.89
2022-08-22T10:30:36.061Z,65.43
2022-08-22T10:33:12.339Z,68.18
2022-08-22T10:36:05.085Z,68.45
2022-08-22T10:38:46.132Z,67.61
2022-08-22T10:41:28.355Z,69.71
2022-08-22T10:44:11.688Z,64.97
2022-08-22T10:46:47.372Z,69.18
2022-08-22T10:49:28.265Z,64.65
2022-08-22T10:52:13.665Z,61.15
2022-08-22T10:54:48.884Z,66.50
2022-08-22T10:57:50.722Z,64.52
2022-08-22T11:00:38.606Z,63.52
2022-08-22T11:03:24.853Z,60.67
2022-08-22T11:06:01.546Z,56.87
2022-08-22T11:08:59.805Z,60.86
2022-08-22T11:11:49.650Z,60.39
2022-08-22T11:14:58.361Z,55.15
2022-08-22T11:18:06.306Z,59.82
2022-08-22T11:20:53.782Z,63.29
2022-08-22T11:23:35.103Z,64.55
2022-08-22T11:26:15.007Z,59.18
2022-08-22T11:29:13.747Z,61.69
2022-08-22T11:31:51.458Z,61.70
2022-08-22T11:34:33.373Z,61.74
2022-08-22T11:37:12.210Z,61.84
2022-08-22T11:39:48.086Z,60.61
2022-08-22T11:42:29.540Z,61.96
2022-08-22T11:45:02.443Z,59.28
2022-08-22T11:47:41.577Z,57.75
2022-08-22T11:50:19.238Z,55.26
2022-08-22T11:53:12.230Z,56.53
2022-08-22T11:55:51.871Z,55.00
2022-08-22T11:58:31.802Z,54.19
2022-08-22T12:01:04.622Z,54.03
2022-08-22T12:03:55.747Z,50.06
2022-08-22T12:07:02.227Z,50.18
2022-08-22T12:09:42.871Z,49.13
2022-08-22T12:12:27.163Z,46.49
2022-08-22T12:15:05.478Z,48.44
2022-08-22T12:18:01.456Z,47.25
2022-08-22T12:21:32.776Z,48.15
2022-08-22T12:24:33.226Z,48.94
2022-08-22T12:27:30.956Z,49.65
2022-08-22T12:30:14.230Z,46.95
2022-08-22T12:33:13.105Z,48.89
2022-08-22T12:36:04.909Z,46.36
2022-08-22T12:39:02.343Z,46.78
2022-08-22T12:42:04.239Z,44.42
2022-08-22T12:44:50.649Z,43.77
2022-08-22T12:47:34.444Z,43.60
2022-08-22T12:50:17.160Z,43.62
2022-08-22T12:53:07.138Z,43.07
2022-08-22T12:55:51.898Z,44.24
2022-08-22T12:58:33.875Z,48.66
2022-08-22T13:01:07.126Z,50.35
2022-08-22T13:03:45.247Z,51.05
2022-08-22T13:06:48.787Z,54.44
2022-08-22T13:09:28.783Z,51.23
2022-08-22T13:12:02.583Z,53.23
2022-08-22T13:14:34.225Z,55.19
2022-08-22T13:17:24.486Z,55.32
2022-08-22T13:20:06.816Z,52.47
2022-08-22T13:22:45.674Z,45.37
2022-08-22T13:25:25.853Z,39.91
2022-08-22T13:27:59.105Z,35.45
2022-08-22T13:30:32.200Z,33.75
2022-08-22T13:33:11.042Z,34.08
2022-08-22T13:35:51.923Z,35.11
2022-08-22T13:38:27.260Z,36.85
2022-08-22T13:41:01.210Z,37.16
2022-08-22T13:43:35.840Z,36.09
2022-08-22T13:46:10.825Z,37.04
2022-08-22T13:49:01.007Z,37.69
2022-08-22T13:51:40.379Z,40.58
2022-08-22T13:54:38.937Z,41.80
2022-08-22T13:57:20.178Z,42.54
2022-08-22T14:00:05.745Z,43.99
2022-08-22T14:02:58.326Z,45.95
2022-08-22T14:05:36.352Z,50.06
2022-08-22T14:08:18.839Z,52.18
2022-08-22T14:10:55.056Z,55.57
2022-08-22T14:13:41.120Z,57.48
2022-08-22T14:16:15.016Z,59.53
2022-08-22T14:18:49.380Z,58.46
2022-08-22T14:21:26.493Z,57.94
2022-08-22T14:23:59.908Z,55.23
2022-08-22T14:26:32.854Z,54.76
2022-08-22T14:29:14.551Z,57.13
2022-08-22T14:31:57.272Z,57.92
2022-08-22T14:34:27.500Z,56.71
2022-08-22T14:36:58.887Z,55.02
2022-08-22T14:39:38.030Z,55.30
2022-08-22T14:42:18.801Z,59.10
2022-08-22T14:45:00.199Z,61.86
2022-08-22T14:47:55.373Z,65.57
2022-08-22T14:50:44.347Z,69.35
2022-08-22T14:53:25.429Z,69.67
2022-08-22T14:56:03.880Z,70.40
2022-08-22T14:58:36.578Z,67.80
2022-08-22T15:01:12.755Z,59.07
2022-08-22T15:03:54.108Z,51.71
2022-08-22T15:06:37.129Z,45.43
2022-08-22T15:09:08.481Z,41.54
2022-08-22T15:11:42.161Z,39.54
2022-08-22T15:14:24.350Z,39.18
2022-08-22T15:16:56.245Z,39.13
2022-08-22T15:19:36.832Z,42.98
2022-08-22T15:22:15.075Z,52.69
2022-08-22T15:25:00.482Z,63.49
2022-08-22T15:27:33.821Z,71.39
2022-08-22T15:30:07.042Z,77.02
2022-08-22T15:32:49.229Z,80.90
2022-08-22T15:35:30.122Z,84.00
2022-08-22T15:38:04.444Z,81.00
2022-08-22T15:40:35.241Z,72.56
2022-08-22T15:43:21.675Z,64.24
2022-08-22T15:45:53.468Z,57.93
2022-08-22T15:48:32.543Z,53.44
2022-08-22T15:51:09.435Z,52.86
2022-08-22T15:54:02.096Z,55.89
2022-08-22T15:56:34.220Z,60.45
2022-08-22T15:59:48.241Z,64.85
2022-08-22T16:02:34.887Z,68.33
2022-08-22T16:05:23.273Z,73.16
2022-08-22T16:08:02.924Z,75.52
2022-08-22T16:10:34.710Z,79.97
2022-08-22T16:13:37.946Z,79.48
2022-08-22T16:16:14.875Z,78.25
2022-08-22T16:19:20.359Z,72.33
2022-08-22T16:22:15.252Z,66.54
2022-08-22T16:25:08.041Z,64.11
2022-08-22T16:27:54.075Z,63.11
2022-08-22T16:30:35.186Z,62.99
2022-08-22T16:33:07.146Z,64.89
2022-08-22T16:36:22.443Z,66.47
2022-08-22T16:38:53.748Z,65.48
2022-08-22T16:41:35.873Z,63.67
2022-08-22T16:44:38.864Z,67.65
2022-08-22T16:47:15.917Z,71.01
2022-08-22T16:50:09.287Z,72.79
2022-08-22T16:52:57.048Z,74.60
2022-08-22T16:55:50.197Z,74.98
2022-08-22T16:58:57.736Z,77.31
2022-08-22T17:01:54.328Z,82.13
2022-08-22T17:04:32.911Z,84.63
2022-08-22T17:07:16.738Z,88.00
2022-08-22T17:10:00.520Z,90.56
2022-08-22T17:12:46.131Z,93.41
2022-08-22T17:15:28.392Z,95.50
2022-08-22T17:18:12.721Z,97.68
2022-08-22T17:20:48.047Z,99.80
2022-08-22T17:23:28.809Z,100.00
2022-08-22T17:26:08.990Z,100.00
2022-08-22T17:28:42.862Z,100.00
2022-08-22T17:31:18.477Z,100.00
2022-08-22T17:34:23.226Z,100.00
2022-08-22T17:37:04.851Z,100.00
2022-08-22T17:40:07.325Z,100.00
2022-08-22T17:43:08.913Z,100.00
2022-08-22T17:45:51.246Z,100.00
2022-08-22T17:48:25.972Z,100.00
2022-08-22T17:50:59.645Z,100.00
2022-08-22T17:53:37.222Z,100.00
2022-08-22T17:56:21.031Z,100.00
2022-08-22T17:59:07.063Z,100.00
2022-08-22T18:01:50.689Z,100.00
2022-08-22T18:04:44.404Z,100.00
2022-08-22T18:07:31.614Z,100.00
2022-08-22T18:10:07.793Z,100.00
2022-08-22T18:12:46.024Z,100.00
2022-08-22T18:15:25.797Z,100.00
2022-08-22T18:17:58.818Z,100.00
2022-08-22T18:20:31.418Z,100.00
2022-08-22T18:23:05.087Z,100.00
2022-08-22T18:26:05.431Z,100.00
2022-08-22T18:28:43.279Z,100.00
2022-08-22T18:31:28.445Z,100.00
2022-08-22T18:34:02.252Z,100.00
2022-08-22T18:36:35.248Z,100.00
2022-08-22T18:39:15.202Z,100.00
2022-08-22T18:41:50.440Z,100.00
2022-08-22T18:44:25.268Z,100.00
2022-08-22T18:46:56.038Z,100.00
2022-08-22T18:49:48.462Z,100.00
2022-08-22T18:52:34.168Z,100.00
2022-08-22T18:55:45.847Z,100.00
2022-08-22T18:58:40.478Z,100.00
2022-08-22T19:01:44.196Z,100.00
2022-08-22T19:04:36.202Z,100.00
2022-08-22T19:07:32.215Z,100.00
2022-08-22T19:10:28.014Z,100.00
2022-08-22T19:13:04.488Z,100.00
2022-08-22T19:15:49.249Z,100.00
2022-08-22T19:18:34.680Z,100.00
2022-08-22T19:21:34.558Z,100.00
2022-08-22T19:24:08.035Z,100.00
2022-08-22T19:26:40.714Z,100.00
2022-08-22T19:29:52.777Z,100.00
2022-08-22T19:33:06.417Z,100.00
2022-08-22T19:35:46.631Z,100.00
2022-08-22T19:38:54.823Z,100.00
2022-08-22T19:41:39.583Z,100.00
2022-08-22T19:44:11.442Z,100.00
2022-08-22T19:46:42.967Z,100.00
2022-08-22T19:49:30.448Z,100.00
2022-08-22T19:52:14.371Z,100.00
2022-08-22T19:54:53.582Z,100.00
2022-08-22T19:57:35.487Z,100.00
2022-08-22T20:00:13.669Z,100.00
2022-08-22T20:02:59.874Z,100.00
2022-08-22T20:05:38.764Z,100.00
2022-08-22T20:08:25.651Z,100.00
2022-08-22T20:11:05.613Z,100.00
2022-08-22T20:13:37.556Z,100.00
2022-08-22T20:16:16.349Z,100.00
2022-08-22T20:19:16.656Z,100.00
2022-08-22T20:22:00.430Z,100.00
2022-08-22T20:24:42.575Z,100.00
2022-08-22T20:27:17.509Z,100.00
2022-08-22T20:29:52.508Z,100.00
2022-08-22T20:32:26.137Z,100.00
2022-08-22T20:35:00.096Z,100.00
2022-08-22T20:37:56.235Z,100.00
2022-08-22T20:40:54.517Z,100.00
2022-08-22T20:43:35.678Z,100.00
2022-08-22T20:46:19.160Z,100.00
2022-08-22T20:48:51.695Z,100.00
2022-08-22T20:51:25.225Z,100.00
2022-08-22T20:53:55.745Z,100.00
2022-08-22T20:56:37.015Z,100.00
2022-08-22T20:59:18.557Z,100.00
2022-08-22T21:01:47.692Z,100.00
2022-08-22T21:04:20.998Z,100.00
2022-08-22T21:06:59.368Z,100.00
2022-08-22T21:09:45.338Z,100.00
2022-08-22T21:12:15.300Z,100.00
2022-08-22T21:14:47.336Z,100.00
2022-08-22T21:17:25.091Z,100.00
2022-08-22T21:19:53.657Z,100.00
2022-08-22T21:22:32.066Z,100.00
2022-08-22T21:25:01.992Z,100.00
2022-08-22T21:27:34.229Z,100.00
2022-08-22T21:30:08.527Z,100.00
2022-08-22T21:32:43.181Z,100.00
2022-08-22T21:35:22.201Z,100.00
2022-08-22T21:37:53.427Z,100.00
2022-08-22T21:40:28.393Z,100.00
2022-08-22T21:43:02.497Z,100.00
2022-08-22T21:45:34.480Z,100.00
2022-08-22T21:48:26.062Z,100.00
2022-08-22T21:50:57.535Z,100.00
2022-08-22T21:53:29.296Z,100.00
2022-08-22T21:56:12.713Z,100.00
2022-08-22T21:58:43.457Z,100.00
2022-08-22T22:01:33.181Z,100.00
2022-08-22T22:04:01.659Z,100.00
2022-08-22T22:06:29.972Z,100.00
2022-08-22T22:09:08.475Z,100.00
2022-08-22T22:11:39.398Z,100.00
2022-08-22T22:14:09.816Z,100.00
2022-08-22T22:16:38.643Z,100.00
2022-08-22T22:19:10.060Z,100.00
2022-08-22T22:21:38.952Z,100.00
2022-08-22T22:24:07.620Z,100.00
2022-08-22T22:26:36.146Z,100.00
2022-08-22T22:29:10.846Z,100.00
2022-08-22T22:31:38.884Z,100.00
2022-08-22T22:34:07.105Z,100.00
2022-08-22T22:36:38.334Z,100.00
2022-08-22T22:39:07.298Z,100.00
2022-08-22T22:41:36.697Z,100.00
2022-08-22T22:44:05.759Z,100.00
2022-08-22T22:46:38.335Z,100.00
2022-08-22T22:49:07.316Z,100.00
2022-08-22T22:51:35.633Z,100.00
2022-08-22T22:54:04.020Z,100.00
2022-08-22T22:56:32.852Z,100.00
2022-08-22T22:59:13.066Z,100.00
2022-08-22T23:04:45.435Z,100.00
2022-08-22T23:07:20.207Z,100.00
2022-08-22T23:09:53.662Z,100.00
2022-08-22T23:12:27.559Z,100.00
2022-08-22T23:15:02.174Z,100.00
2022-08-22T23:17:38.355Z,100.00
2022-08-22T23:20:16.606Z,100.00
2022-08-22T23:22:46.083Z,100.00
2022-08-22T23:25:19.961Z,100.00
2022-08-22T23:27:58.569Z,100.00
2022-08-22T23:30:26.959Z,100.00
2022-08-22T23:32:55.880Z,100.00
2022-08-22T23:35:25.613Z,100.00
2022-08-22T23:37:54.002Z,100.00
2022-08-22T23:40:22.376Z,100.00
2022-08-22T23:42:50.657Z,100.00
2022-08-22T23:45:19.152Z,100.00
2022-08-22T23:47:50.432Z,100.00
2022-08-22T23:50:18.789Z,100.00
2022-08-22T23:52:48.682Z,100.00
2022-08-22T23:55:17.159Z,100.00
2022-08-22T23:57:48.028Z,100.00
